createdAt,value
2022-12-08T00:02:06.697Z,99.90
2022-12-08T00:04:56.179Z,99.90
2022-12-08T00:07:41.800Z,99.90
2022-12-08T00:10:46.657Z,99.90
2022-12-08T00:12:58.665Z,99.90
2022-12-08T00:15:26.641Z,99.90
2022-12-08T00:17:54.587Z,99.90
2022-12-08T00:20:23.998Z,99.90
2022-12-08T00:22:51.968Z,99.90
2022-12-08T00:25:19.921Z,99.90
2022-12-08T00:27:47.884Z,99.90
2022-12-08T00:30:15.983Z,99.90
2022-12-08T00:32:43.947Z,99.90
2022-12-08T00:35:11.946Z,99.90
2022-12-08T00:37:41.315Z,99.90
2022-12-08T00:40:10.361Z,99.90
2022-12-08T00:42:38.353Z,99.90
2022-12-08T00:45:07.427Z,99.90
2022-12-08T00:47:35.391Z,99.90
2022-12-08T00:50:03.736Z,99.90
2022-12-08T00:52:31.948Z,99.90
2022-12-08T00:55:01.261Z,99.90
2022-12-08T00:57:29.284Z,99.90
2022-12-08T00:59:57.272Z,99.90
2022-12-08T01:02:25.766Z,99.90
2022-12-08T01:04:54.166Z,99.90
2022-12-08T01:07:22.181Z,99.90
2022-12-08T01:09:50.157Z,99.90
2022-12-08T01:12:19.733Z,99.90
2022-12-08T01:14:47.719Z,99.90
2022-12-08T01:17:15.696Z,99.90
2022-12-08T01:19:43.659Z,99.90
2022-12-08T01:22:11.646Z,99.90
2022-12-08T01:24:39.699Z,99.90
2022-12-08T01:27:07.729Z,99.90
2022-12-08T01:29:37.216Z,99.90
2022-12-08T01:32:05.486Z,99.90
2022-12-08T01:34:33.468Z,99.90
2022-12-08T01:37:01.703Z,99.90
2022-12-08T01:39:29.926Z,99.90
2022-12-08T01:41:57.871Z,99.90
2022-12-08T01:44:53.791Z,99.90
2022-12-08T01:47:22.726Z,99.90
2022-12-08T01:49:50.708Z,99.90
2022-12-08T01:52:24.391Z,99.90
2022-12-08T01:54:57.119Z,99.90
2022-12-08T01:57:28.734Z,99.90
2022-12-08T02:00:03.220Z,99.90
2022-12-08T02:02:37.119Z,99.90
2022-12-08T02:05:06.981Z,99.90
2022-12-08T02:07:36.504Z,99.90
2022-12-08T02:10:05.987Z,99.90
2022-12-08T02:12:34.778Z,99.90
2022-12-08T02:15:05.501Z,99.90
2022-12-08T02:17:47.442Z,99.90
2022-12-08T02:20:34.321Z,99.90
2022-12-08T02:23:08.997Z,99.90
2022-12-08T02:25:49.045Z,99.90
2022-12-08T02:28:45.478Z,99.90
2022-12-08T02:31:25.993Z,99.90
2022-12-08T02:34:18.311Z,99.90
2022-12-08T02:36:55.441Z,99.90
2022-12-08T02:39:31.626Z,99.90
2022-12-08T02:42:09.479Z,99.90
2022-12-08T02:44:46.968Z,99.90
2022-12-08T02:47:18.904Z,99.90
2022-12-08T02:49:48.566Z,99.90
2022-12-08T02:52:42.337Z,99.90
2022-12-08T02:55:17.421Z,99.90
2022-12-08T02:58:02.487Z,99.90
2022-12-08T03:00:39.633Z,99.90
2022-12-08T03:03:16.064Z,99.90
2022-12-08T03:05:58.523Z,99.90
2022-12-08T03:08:35.267Z,99.90
2022-12-08T03:11:07.715Z,99.90
2022-12-08T03:13:42.172Z,99.90
2022-12-08T03:16:14.104Z,99.90
2022-12-08T03:18:46.561Z,99.90
2022-12-08T03:21:19.108Z,99.90
2022-12-08T03:23:49.008Z,99.90
2022-12-08T03:26:32.097Z,99.90
2022-12-08T03:29:00.492Z,99.90
2022-12-08T03:31:32.659Z,99.90
2022-12-08T03:34:03.789Z,99.90
2022-12-08T03:36:33.330Z,99.90
2022-12-08T03:39:01.406Z,99.90
2022-12-08T03:41:29.401Z,99.90
2022-12-08T03:43:59.524Z,99.90
2022-12-08T03:48:56.938Z,99.90
2022-12-08T03:51:25.391Z,99.90
2022-12-08T03:53:55.055Z,99.90
2022-12-08T03:56:25.665Z,99.90
2022-12-08T03:58:54.671Z,99.90
2022-12-08T04:01:23.192Z,99.90
2022-12-08T04:03:51.493Z,99.90
2022-12-08T04:06:20.403Z,99.90
2022-12-08T04:08:48.483Z,99.90
2022-12-08T04:11:18.804Z,99.90
2022-12-08T04:13:47.180Z,99.90
2022-12-08T04:16:17.629Z,99.90
2022-12-08T04:18:46.037Z,99.90
2022-12-08T04:21:14.111Z,99.90
2022-12-08T04:23:42.793Z,99.90
2022-12-08T04:26:10.804Z,99.90
2022-12-08T04:28:40.199Z,99.90
2022-12-08T04:31:08.682Z,99.90
2022-12-08T04:33:36.811Z,99.90
2022-12-08T04:36:05.892Z,99.90
2022-12-08T04:38:34.400Z,99.90
2022-12-08T04:41:02.678Z,99.90
2022-12-08T04:43:30.801Z,99.90
2022-12-08T04:46:00.191Z,99.90
2022-12-08T04:48:28.330Z,99.90
2022-12-08T04:50:56.343Z,99.90
2022-12-08T04:53:26.635Z,99.90
2022-12-08T04:55:54.717Z,99.90
2022-12-08T04:58:22.966Z,99.90
2022-12-08T05:00:51.571Z,99.90
2022-12-08T05:03:28.097Z,99.90
2022-12-08T05:05:56.727Z,99.90
2022-12-08T05:08:24.760Z,99.90
2022-12-08T05:10:52.840Z,99.90
2022-12-08T05:13:20.933Z,99.90
2022-12-08T05:15:49.033Z,99.90
2022-12-08T05:18:17.098Z,99.90
2022-12-08T05:20:46.481Z,99.90
2022-12-08T05:23:14.457Z,99.90
2022-12-08T05:25:42.525Z,99.90
2022-12-08T05:28:43.386Z,99.90
2022-12-08T05:31:12.603Z,99.90
2022-12-08T05:33:41.025Z,99.90
2022-12-08T05:36:11.088Z,99.90
2022-12-08T05:38:39.085Z,99.90
2022-12-08T05:41:07.643Z,99.90
2022-12-08T05:43:36.075Z,99.90
2022-12-08T05:46:04.314Z,99.90
2022-12-08T05:48:32.359Z,99.90
2022-12-08T05:51:00.997Z,99.90
2022-12-08T05:53:30.374Z,99.90
2022-12-08T05:55:58.559Z,99.90
2022-12-08T05:58:26.610Z,99.90
2022-12-08T06:00:54.592Z,99.90
2022-12-08T06:03:22.625Z,99.90
2022-12-08T06:05:50.653Z,99.90
2022-12-08T06:08:18.711Z,99.90
2022-12-08T06:10:48.467Z,99.90
2022-12-08T06:13:16.521Z,99.90
2022-12-08T06:15:44.516Z,99.90
2022-12-08T06:18:12.756Z,99.90
2022-12-08T06:20:40.816Z,99.90
2022-12-08T06:23:08.842Z,99.90
2022-12-08T06:25:36.960Z,99.90
2022-12-08T06:28:08.515Z,99.90
2022-12-08T06:30:36.671Z,99.90
2022-12-08T06:33:04.745Z,99.90
2022-12-08T06:35:32.799Z,99.90
2022-12-08T06:38:00.936Z,99.90
2022-12-08T06:40:28.946Z,99.90
2022-12-08T06:42:56.934Z,99.90
2022-12-08T06:45:26.308Z,99.90
2022-12-08T06:47:54.343Z,99.90
2022-12-08T06:50:22.482Z,99.90
2022-12-08T06:53:02.677Z,99.90
2022-12-08T06:58:21.362Z,99.90
2022-12-08T07:00:50.785Z,99.90
2022-12-08T07:03:18.881Z,99.90
2022-12-08T07:05:46.846Z,99.90
2022-12-08T07:08:14.849Z,99.90
2022-12-08T07:10:42.947Z,99.90
2022-12-08T07:13:11.094Z,99.90
2022-12-08T07:15:39.085Z,99.90
2022-12-08T07:18:08.519Z,99.90
2022-12-08T07:20:36.562Z,99.90
2022-12-08T07:23:04.579Z,99.90
2022-12-08T07:25:32.558Z,99.90
2022-12-08T07:28:00.571Z,99.90
2022-12-08T07:30:28.723Z,99.90
2022-12-08T07:32:56.871Z,99.90
2022-12-08T07:35:26.390Z,99.90
2022-12-08T07:37:54.408Z,99.90
2022-12-08T07:40:22.411Z,99.90
2022-12-08T07:42:50.361Z,99.90
2022-12-08T07:45:18.451Z,99.90
2022-12-08T07:47:46.498Z,99.90
2022-12-08T07:50:14.482Z,99.90
2022-12-08T07:52:43.960Z,99.90
2022-12-08T07:55:11.973Z,99.90
2022-12-08T07:57:39.993Z,99.90
2022-12-08T08:00:09.852Z,99.90
2022-12-08T08:02:38.042Z,99.90
2022-12-08T08:05:07.029Z,99.90
2022-12-08T08:07:36.690Z,99.90
2022-12-08T08:10:07.656Z,99.90
2022-12-08T08:12:35.800Z,99.90
2022-12-08T08:15:07.387Z,99.90
2022-12-08T08:17:35.648Z,99.90
2022-12-08T08:20:06.938Z,99.90
2022-12-08T08:22:36.350Z,99.90
2022-12-08T08:25:06.405Z,99.90
2022-12-08T08:27:34.697Z,99.90
2022-12-08T08:30:03.118Z,99.90
2022-12-08T08:32:34.247Z,99.90
2022-12-08T08:35:02.381Z,99.90
2022-12-08T08:37:30.654Z,99.90
2022-12-08T08:39:58.662Z,99.90
2022-12-08T08:42:28.292Z,99.90
2022-12-08T08:44:56.291Z,99.90
2022-12-08T08:47:24.380Z,99.90
2022-12-08T08:49:52.363Z,99.90
2022-12-08T08:52:20.333Z,99.90
2022-12-08T08:54:48.316Z,99.90
2022-12-08T08:57:18.448Z,99.90
2022-12-08T08:59:51.467Z,99.90
2022-12-08T09:02:21.298Z,99.90
2022-12-08T09:04:49.464Z,99.90
2022-12-08T09:07:18.016Z,99.90
2022-12-08T09:09:46.045Z,99.90
2022-12-08T09:12:14.595Z,99.90
2022-12-08T09:14:59.524Z,99.90
2022-12-08T09:17:27.544Z,99.90
2022-12-08T09:19:55.519Z,99.90
2022-12-08T09:22:23.764Z,99.90
2022-12-08T09:24:51.771Z,99.90
2022-12-08T09:27:19.902Z,99.90
2022-12-08T09:29:47.901Z,99.90
2022-12-08T09:32:17.275Z,99.90
2022-12-08T09:34:50.462Z,99.90
2022-12-08T09:37:19.956Z,99.90
2022-12-08T09:39:48.200Z,99.90
2022-12-08T09:42:34.789Z,99.90
2022-12-08T09:45:06.927Z,99.90
2022-12-08T09:47:40.838Z,99.90
2022-12-08T09:50:15.232Z,99.90
2022-12-08T09:52:46.947Z,99.90
2022-12-08T09:55:22.168Z,99.90
2022-12-08T09:57:58.526Z,99.90
2022-12-08T10:00:26.569Z,99.90
2022-12-08T10:02:57.024Z,99.90
2022-12-08T10:05:26.999Z,99.90
2022-12-08T10:08:06.029Z,99.90
2022-12-08T10:10:41.018Z,99.90
2022-12-08T10:13:16.089Z,99.90
2022-12-08T10:15:51.418Z,99.90
2022-12-08T10:18:25.118Z,99.90
2022-12-08T10:20:53.526Z,99.90
2022-12-08T10:23:30.650Z,99.90
2022-12-08T10:26:03.383Z,99.90
2022-12-08T10:28:32.924Z,99.90
2022-12-08T10:31:00.959Z,99.90
2022-12-08T10:33:34.118Z,99.90
2022-12-08T10:36:03.162Z,99.90
2022-12-08T10:38:33.060Z,99.90
2022-12-08T10:41:05.646Z,99.90
2022-12-08T10:43:35.200Z,99.00
2022-12-08T10:46:12.322Z,97.30
2022-12-08T10:48:53.721Z,96.40
2022-12-08T10:51:30.445Z,95.30
2022-12-08T10:53:59.232Z,92.50
2022-12-08T10:56:29.429Z,91.80
2022-12-08T10:59:14.729Z,91.20
2022-12-08T11:01:46.520Z,90.60
2022-12-08T11:04:18.632Z,90.00
2022-12-08T11:06:47.571Z,87.80
2022-12-08T11:09:36.563Z,86.10
2022-12-08T11:12:09.825Z,80.40
2022-12-08T11:14:49.704Z,80.70
2022-12-08T11:17:25.300Z,80.50
2022-12-08T11:20:00.207Z,78.90
2022-12-08T11:22:32.257Z,76.40
2022-12-08T11:25:02.313Z,73.30
2022-12-08T11:27:31.027Z,74.90
2022-12-08T11:29:59.069Z,75.90
2022-12-08T11:32:27.062Z,76.60
2022-12-08T11:35:00.019Z,78.40
2022-12-08T11:37:35.256Z,78.40
2022-12-08T11:40:08.827Z,78.50
2022-12-08T11:42:46.595Z,80.20
2022-12-08T11:45:21.592Z,80.30
2022-12-08T11:47:57.603Z,80.50
2022-12-08T11:50:30.540Z,79.60
2022-12-08T11:52:59.426Z,80.00
2022-12-08T11:55:37.313Z,80.50
2022-12-08T11:58:15.601Z,80.90
2022-12-08T12:00:43.728Z,81.90
2022-12-08T12:03:22.888Z,80.20
2022-12-08T12:06:23.852Z,79.30
2022-12-08T12:09:09.066Z,80.50
2022-12-08T12:12:04.341Z,80.90
2022-12-08T12:14:47.879Z,81.00
2022-12-08T12:17:33.574Z,78.70
2022-12-08T12:20:12.053Z,78.10
2022-12-08T12:22:43.034Z,78.80
2022-12-08T12:25:19.030Z,78.30
2022-12-08T12:27:49.366Z,77.40
2022-12-08T12:30:22.855Z,77.50
2022-12-08T12:32:55.730Z,76.50
2022-12-08T12:35:32.088Z,77.70
2022-12-08T12:38:25.557Z,78.30
2022-12-08T12:41:00.993Z,78.20
2022-12-08T12:43:34.995Z,78.00
2022-12-08T12:46:48.387Z,77.30
2022-12-08T12:49:51.285Z,78.60
2022-12-08T12:52:44.333Z,79.50
2022-12-08T12:55:56.970Z,80.40
2022-12-08T12:58:50.805Z,80.20
2022-12-08T13:01:52.042Z,80.10
2022-12-08T13:04:20.552Z,79.40
2022-12-08T13:06:51.398Z,79.30
2022-12-08T13:09:22.427Z,80.00
2022-12-08T13:11:55.236Z,79.00
2022-12-08T13:14:30.355Z,79.50
2022-12-08T13:17:01.271Z,80.60
2022-12-08T13:19:33.008Z,80.60
2022-12-08T13:22:01.608Z,79.80
2022-12-08T13:24:33.526Z,80.60
2022-12-08T13:27:36.086Z,81.00
2022-12-08T13:30:41.387Z,81.40
2022-12-08T13:33:18.135Z,81.40
2022-12-08T13:35:54.669Z,78.90
2022-12-08T13:38:26.980Z,78.70
2022-12-08T13:40:56.830Z,79.10
2022-12-08T13:43:48.375Z,80.00
2022-12-08T13:53:49.076Z,83.60
2022-12-08T13:56:37.508Z,83.20
2022-12-08T13:58:07.584Z,82.80
2022-12-08T14:00:37.072Z,82.30
2022-12-08T14:03:05.514Z,82.00
2022-12-08T14:06:10.990Z,81.40
2022-12-08T14:11:34.486Z,81.00
2022-12-08T14:14:05.504Z,80.70
2022-12-08T14:16:39.516Z,80.70
2022-12-08T14:19:16.479Z,80.90
2022-12-08T14:21:48.320Z,80.90
2022-12-08T14:24:16.294Z,81.40
2022-12-08T14:26:47.648Z,81.10
2022-12-08T14:29:34.053Z,81.70
2022-12-08T14:32:03.510Z,81.70
2022-12-08T14:34:32.935Z,82.00
2022-12-08T14:37:01.022Z,82.80
2022-12-08T14:39:29.055Z,83.20
2022-12-08T14:42:01.371Z,83.70
2022-12-08T14:44:41.946Z,84.20
2022-12-08T14:47:12.149Z,84.40
2022-12-08T14:49:41.146Z,84.60
2022-12-08T14:52:12.021Z,84.90
2022-12-08T14:54:42.906Z,85.10
2022-12-08T14:57:14.078Z,85.40
2022-12-08T14:59:43.626Z,85.90
2022-12-08T15:02:26.451Z,86.50
2022-12-08T15:05:01.321Z,87.00
2022-12-08T15:07:31.693Z,87.50
2022-12-08T15:10:21.898Z,87.80
2022-12-08T15:13:08.619Z,88.00
2022-12-08T15:15:49.245Z,88.40
2022-12-08T15:18:20.391Z,88.80
2022-12-08T15:20:50.798Z,88.90
2022-12-08T15:23:26.676Z,88.90
2022-12-08T15:25:55.555Z,89.50
2022-12-08T15:28:30.008Z,89.80
2022-12-08T15:30:58.717Z,90.10
2022-12-08T15:33:28.421Z,90.30
2022-12-08T15:35:56.429Z,90.40
2022-12-08T15:38:26.624Z,90.50
2022-12-08T15:40:55.605Z,90.60
2022-12-08T15:43:24.115Z,90.40
2022-12-08T15:46:01.166Z,90.40
2022-12-08T15:48:31.464Z,90.40
2022-12-08T15:51:00.030Z,90.40
2022-12-08T15:53:28.081Z,90.30
2022-12-08T15:58:53.510Z,90.30
2022-12-08T16:01:22.764Z,90.10
2022-12-08T16:09:32.558Z,89.70
2022-12-08T16:13:13.428Z,89.80
2022-12-08T16:15:50.098Z,89.70
2022-12-08T16:18:14.985Z,89.30
2022-12-08T16:21:08.087Z,88.80
2022-12-08T16:23:48.472Z,88.80
2022-12-08T16:29:07.960Z,88.90
2022-12-08T16:31:36.366Z,89.20
2022-12-08T16:34:04.412Z,89.20
2022-12-08T16:36:33.780Z,88.90
2022-12-08T16:39:01.775Z,88.90
2022-12-08T16:41:47.192Z,89.20
2022-12-08T16:44:15.246Z,89.60
2022-12-08T16:46:43.393Z,89.90
2022-12-08T16:49:11.344Z,89.70
2022-12-08T16:51:43.563Z,89.70
2022-12-08T16:54:11.997Z,90.20
2022-12-08T16:56:40.017Z,90.60
2022-12-08T16:59:07.982Z,91.00
2022-12-08T17:01:36.142Z,91.50
2022-12-08T17:06:53.654Z,92.10
2022-12-08T17:09:21.700Z,92.70
2022-12-08T17:11:49.737Z,93.70
2022-12-08T17:14:17.868Z,94.90
2022-12-08T17:16:46.086Z,95.70
2022-12-08T17:19:15.318Z,96.50
2022-12-08T17:21:44.395Z,97.30
2022-12-08T17:24:18.565Z,98.00
2022-12-08T17:26:49.803Z,98.30
2022-12-08T17:29:18.723Z,98.40
2022-12-08T17:31:46.893Z,98.50
2022-12-08T17:34:15.482Z,98.70
2022-12-08T17:36:43.577Z,99.10
2022-12-08T17:39:18.305Z,99.20
2022-12-08T17:41:47.477Z,99.60
2022-12-08T17:44:17.275Z,99.90
2022-12-08T17:46:52.112Z,99.90
2022-12-08T17:49:23.918Z,99.90
2022-12-08T17:51:53.897Z,99.90
2022-12-08T17:54:23.981Z,99.90
2022-12-08T17:56:52.502Z,99.90
2022-12-08T17:59:20.743Z,99.90
2022-12-08T18:01:48.918Z,99.90
2022-12-08T18:04:17.008Z,99.90
2022-12-08T18:06:45.069Z,99.90
2022-12-08T18:09:13.403Z,99.90
2022-12-08T18:11:44.166Z,99.90
2022-12-08T18:14:14.152Z,99.90
2022-12-08T18:16:44.940Z,99.90
2022-12-08T18:19:13.721Z,99.90
2022-12-08T18:21:42.504Z,99.90
2022-12-08T18:24:16.427Z,99.90
2022-12-08T18:26:45.996Z,99.90
2022-12-08T18:29:14.043Z,99.90
2022-12-08T18:31:42.096Z,99.90
2022-12-08T18:34:10.127Z,99.90
2022-12-08T18:36:38.145Z,99.90
2022-12-08T18:39:10.726Z,99.90
2022-12-08T18:41:39.075Z,99.90
2022-12-08T18:44:08.527Z,99.90
2022-12-08T18:46:36.648Z,99.90
2022-12-08T18:49:04.697Z,99.90
2022-12-08T18:51:32.761Z,99.90
2022-12-08T18:54:00.766Z,99.90
2022-12-08T18:56:30.797Z,99.90
2022-12-08T18:59:03.658Z,99.90
2022-12-08T19:01:34.182Z,99.90
2022-12-08T19:04:27.357Z,99.90
2022-12-08T19:06:52.865Z,99.90
2022-12-08T19:09:21.503Z,99.90
2022-12-08T19:11:49.587Z,99.90
2022-12-08T19:14:20.196Z,99.90
2022-12-08T19:16:53.564Z,99.90
2022-12-08T19:19:21.537Z,99.90
2022-12-08T19:21:49.580Z,99.90
2022-12-08T19:24:17.759Z,99.90
2022-12-08T19:26:46.181Z,99.90
2022-12-08T19:29:14.395Z,99.90
2022-12-08T19:31:42.906Z,99.90
2022-12-08T19:34:14.246Z,99.90
2022-12-08T19:36:43.295Z,99.90
2022-12-08T19:39:33.922Z,99.90
2022-12-08T19:42:19.819Z,99.90
2022-12-08T19:45:06.876Z,99.90
2022-12-08T19:47:34.966Z,99.90
2022-12-08T19:50:22.644Z,99.90
2022-12-08T19:52:50.744Z,99.90
2022-12-08T19:55:19.135Z,99.90
2022-12-08T19:57:47.137Z,99.90
2022-12-08T20:00:16.157Z,99.90
2022-12-08T20:02:44.355Z,99.90
2022-12-08T20:05:13.990Z,99.90
2022-12-08T20:07:42.866Z,99.90
2022-12-08T20:10:16.194Z,99.90
2022-12-08T20:12:44.312Z,99.90
2022-12-08T20:15:12.955Z,99.90
2022-12-08T20:17:41.366Z,99.90
2022-12-08T20:20:11.014Z,99.90
2022-12-08T20:22:40.605Z,99.90
2022-12-08T20:25:13.012Z,99.90
2022-12-08T20:27:42.188Z,99.90
2022-12-08T20:30:16.675Z,99.90
2022-12-08T20:32:45.107Z,99.90
2022-12-08T20:35:13.258Z,99.90
2022-12-08T20:37:42.904Z,99.90
2022-12-08T20:40:11.549Z,99.90
2022-12-08T20:42:39.676Z,99.90
2022-12-08T20:45:17.284Z,99.90
2022-12-08T20:47:45.579Z,99.90
2022-12-08T20:50:13.874Z,99.90
2022-12-08T20:52:43.457Z,99.90
2022-12-08T20:55:11.931Z,99.90
2022-12-08T20:57:40.135Z,99.90
2022-12-08T21:00:09.724Z,99.90
2022-12-08T21:02:43.215Z,99.90
2022-12-08T21:05:15.248Z,99.90
2022-12-08T21:07:45.433Z,99.90
2022-12-08T21:10:13.572Z,99.90
2022-12-08T21:12:41.825Z,99.90
2022-12-08T21:15:12.382Z,99.90
2022-12-08T21:17:40.682Z,99.90
2022-12-08T21:20:10.007Z,99.90
2022-12-08T21:22:39.939Z,99.90
2022-12-08T21:25:10.208Z,99.90
2022-12-08T21:27:39.019Z,99.90
2022-12-08T21:30:10.089Z,99.90
2022-12-08T21:32:39.662Z,99.90
2022-12-08T21:35:09.033Z,99.90
2022-12-08T21:37:37.693Z,99.90
2022-12-08T21:40:08.202Z,99.90
2022-12-08T21:42:46.868Z,99.90
2022-12-08T21:45:17.669Z,99.90
2022-12-08T21:47:47.262Z,99.90
2022-12-08T21:50:16.178Z,99.90
2022-12-08T21:52:46.487Z,99.90
2022-12-08T21:55:16.132Z,99.90
2022-12-08T21:57:45.685Z,99.90
2022-12-08T22:00:16.961Z,99.90
2022-12-08T22:02:46.311Z,99.90
2022-12-08T22:05:14.632Z,99.90
2022-12-08T22:07:43.060Z,99.90
2022-12-08T22:10:12.334Z,99.90
2022-12-08T22:12:41.183Z,99.90
2022-12-08T22:15:14.771Z,99.90
2022-12-08T22:17:44.763Z,99.90
2022-12-08T22:20:15.473Z,99.90
2022-12-08T22:22:44.330Z,99.90
2022-12-08T22:25:13.190Z,99.90
2022-12-08T22:27:41.766Z,99.90
2022-12-08T22:30:12.051Z,99.90
2022-12-08T22:32:42.425Z,99.90
2022-12-08T22:35:12.056Z,99.90
2022-12-08T22:37:40.326Z,99.90
2022-12-08T22:40:09.833Z,99.90
2022-12-08T22:42:38.233Z,99.90
2022-12-08T22:45:07.564Z,99.90
2022-12-08T22:47:36.298Z,99.90
2022-12-08T22:50:07.714Z,99.90
2022-12-08T22:52:36.162Z,99.90
2022-12-08T22:55:04.589Z,99.90
2022-12-08T22:57:32.773Z,99.90
2022-12-08T23:00:00.960Z,99.90
2022-12-08T23:02:28.964Z,99.90
2022-12-08T23:04:57.727Z,99.90
2022-12-08T23:07:27.300Z,99.90
2022-12-08T23:09:55.257Z,99.90
2022-12-08T23:12:23.310Z,99.90
2022-12-08T23:14:51.631Z,99.90
2022-12-08T23:17:20.146Z,99.90
2022-12-08T23:19:48.196Z,99.90
2022-12-08T23:22:16.380Z,99.90
2022-12-08T23:24:45.980Z,99.90
2022-12-08T23:27:14.172Z,99.90
2022-12-08T23:29:42.328Z,99.90
2022-12-08T23:32:10.615Z,99.90
2022-12-08T23:34:38.710Z,99.90
2022-12-08T23:37:06.740Z,99.90
2022-12-08T23:39:34.830Z,99.90
2022-12-08T23:42:04.236Z,99.90
2022-12-08T23:44:32.373Z,99.90
2022-12-08T23:47:00.486Z,99.90
2022-12-08T23:49:28.926Z,99.90
2022-12-08T23:51:57.212Z,99.90
2022-12-08T23:54:25.271Z,99.90
2022-12-08T23:56:53.543Z,99.90
2022-12-08T23:59:23.093Z,99.90
